Wesleyville, Canada
Current Conditions -  °F | °C
As of 10:00 PM on Saturday 20 Dec 2014 (Local Time) from CYQX Reporting Station
Overcast Overcast  
Wind Chill: 20°   Ceiling: 2300
Heat Index: 27°   Visibility: 15mi
Dew Point: 23°   Wind: 6mph
Humidity: 86%   Direction: 10°N
Pressure: 30.27"   Gusts: NA
Location:  49.15°N, 53.58°W
Report Text: CYQX 210100Z 01005KT 15SM OVC023 M03/M05 A3027 RMK SC8 SLP259
Loading
Personal Weather Stations






























Interactive Weather Map New forecast layout! Learn more

10-Day Weather Forecast

Advertisements
Track Severe Weather on mobile